sensor_id;sensor_type;location;lat;lon;timestamp;P1;durP1;ratioP1;P2;durP2;ratioP2
39654;SDS011;25336;59.944;11.010;2023-08-07T00:00:41;2.10;;;1.95;;
39654;SDS011;25336;59.944;11.010;2023-08-07T00:03:06;2.15;;;1.85;;
39654;SDS011;25336;59.944;11.010;2023-08-07T00:05:32;1.98;;;1.80;;
39654;SDS011;25336;59.944;11.010;2023-08-07T00:07:58;2.30;;;1.85;;
39654;SDS011;25336;59.944;11.010;2023-08-07T00:10:23;4.50;;;2.20;;
39654;SDS011;25336;59.944;11.010;2023-08-07T00:12:49;1.67;;;1.58;;
39654;SDS011;25336;59.944;11.010;2023-08-07T00:15:15;1.70;;;1.60;;
39654;SDS011;25336;59.944;11.010;2023-08-07T00:17:41;4.63;;;2.20;;
39654;SDS011;25336;59.944;11.010;2023-08-07T00:20:07;2.63;;;1.70;;
39654;SDS011;25336;59.944;11.010;2023-08-07T00:22:33;5.40;;;2.47;;
39654;SDS011;25336;59.944;11.010;2023-08-07T00:24:58;1.77;;;1.65;;
39654;SDS011;25336;59.944;11.010;2023-08-07T00:27:24;1.75;;;1.65;;
39654;SDS011;25336;59.944;11.010;2023-08-07T00:29:50;1.80;;;1.70;;
39654;SDS011;25336;59.944;11.010;2023-08-07T00:32:16;1.67;;;1.55;;
39654;SDS011;25336;59.944;11.010;2023-08-07T00:34:42;1.65;;;1.55;;
39654;SDS011;25336;59.944;11.010;2023-08-07T00:37:08;1.85;;;1.70;;
39654;SDS011;25336;59.944;11.010;2023-08-07T00:39:34;1.70;;;1.60;;
39654;SDS011;25336;59.944;11.010;2023-08-07T00:41:59;2.40;;;1.85;;
39654;SDS011;25336;59.944;11.010;2023-08-07T00:44:25;4.53;;;1.95;;
39654;SDS011;25336;59.944;11.010;2023-08-07T00:46:51;2.00;;;1.80;;
39654;SDS011;25336;59.944;11.010;2023-08-07T00:49:16;2.00;;;1.70;;
39654;SDS011;25336;59.944;11.010;2023-08-07T00:51:43;2.30;;;2.00;;
39654;SDS011;25336;59.944;11.010;2023-08-07T00:54:10;2.22;;;1.70;;
39654;SDS011;25336;59.944;11.010;2023-08-07T00:56:39;2.85;;;1.90;;
39654;SDS011;25336;59.944;11.010;2023-08-07T00:59:05;2.00;;;1.90;;
39654;SDS011;25336;59.944;11.010;2023-08-07T01:01:30;2.08;;;1.70;;
39654;SDS011;25336;59.944;11.010;2023-08-07T01:03:56;2.30;;;2.10;;
39654;SDS011;25336;59.944;11.010;2023-08-07T01:06:22;2.13;;;1.92;;
39654;SDS011;25336;59.944;11.010;2023-08-07T01:08:47;2.63;;;2.25;;
39654;SDS011;25336;59.944;11.010;2023-08-07T01:14:15;2.75;;;1.83;;
39654;SDS011;25336;59.944;11.010;2023-08-07T01:16:52;2.47;;;1.77;;
39654;SDS011;25336;59.944;11.010;2023-08-07T01:19:25;1.45;;;1.35;;
39654;SDS011;25336;59.944;11.010;2023-08-07T01:22:11;2.15;;;1.50;;
39654;SDS011;25336;59.944;11.010;2023-08-07T01:24:37;1.80;;;1.70;;
39654;SDS011;25336;59.944;11.010;2023-08-07T01:27:10;1.88;;;1.60;;
39654;SDS011;25336;59.944;11.010;2023-08-07T01:32:34;2.35;;;1.67;;
39654;SDS011;25336;59.944;11.010;2023-08-07T01:35:12;2.20;;;2.10;;
39654;SDS011;25336;59.944;11.010;2023-08-07T01:37:41;1.58;;;1.48;;
39654;SDS011;25336;59.944;11.010;2023-08-07T01:40:09;1.75;;;1.48;;
39654;SDS011;25336;59.944;11.010;2023-08-07T01:42:36;2.08;;;1.77;;
39654;SDS011;25336;59.944;11.010;2023-08-07T01:45:03;1.85;;;1.45;;
39654;SDS011;25336;59.944;11.010;2023-08-07T01:47:29;1.75;;;1.65;;
39654;SDS011;25336;59.944;11.010;2023-08-07T01:49:55;1.48;;;1.38;;
39654;SDS011;25336;59.944;11.010;2023-08-07T01:52:21;1.50;;;1.40;;
39654;SDS011;25336;59.944;11.010;2023-08-07T01:54:47;3.08;;;1.80;;
39654;SDS011;25336;59.944;11.010;2023-08-07T01:57:13;2.17;;;1.95;;
39654;SDS011;25336;59.944;11.010;2023-08-07T01:59:38;2.28;;;2.00;;
39654;SDS011;25336;59.944;11.010;2023-08-07T02:02:04;2.13;;;1.95;;
39654;SDS011;25336;59.944;11.010;2023-08-07T02:04:32;2.83;;;1.60;;
39654;SDS011;25336;59.944;11.010;2023-08-07T02:06:58;2.58;;;2.33;;
39654;SDS011;25336;59.944;11.010;2023-08-07T02:09:23;2.53;;;1.85;;
39654;SDS011;25336;59.944;11.010;2023-08-07T02:11:49;3.17;;;1.80;;
39654;SDS011;25336;59.944;11.010;2023-08-07T02:14:15;1.75;;;1.65;;
39654;SDS011;25336;59.944;11.010;2023-08-07T02:16:40;3.17;;;1.83;;
39654;SDS011;25336;59.944;11.010;2023-08-07T02:19:06;1.95;;;1.80;;
39654;SDS011;25336;59.944;11.010;2023-08-07T02:21:32;1.80;;;1.70;;
39654;SDS011;25336;59.944;11.010;2023-08-07T02:23:58;2.67;;;1.50;;
39654;SDS011;25336;59.944;11.010;2023-08-07T02:26:24;2.83;;;1.50;;
39654;SDS011;25336;59.944;11.010;2023-08-07T02:28:49;1.70;;;1.50;;
39654;SDS011;25336;59.944;11.010;2023-08-07T02:31:15;1.35;;;1.25;;
39654;SDS011;25336;59.944;11.010;2023-08-07T02:33:41;1.80;;;1.70;;
39654;SDS011;25336;59.944;11.010;2023-08-07T02:36:06;1.42;;;1.33;;
39654;SDS011;25336;59.944;11.010;2023-08-07T02:38:32;1.80;;;1.60;;
39654;SDS011;25336;59.944;11.010;2023-08-07T02:40:58;2.40;;;1.60;;
39654;SDS011;25336;59.944;11.010;2023-08-07T02:43:24;2.35;;;1.40;;
39654;SDS011;25336;59.944;11.010;2023-08-07T02:45:51;3.03;;;1.65;;
39654;SDS011;25336;59.944;11.010;2023-08-07T02:48:17;2.55;;;1.40;;
39654;SDS011;25336;59.944;11.010;2023-08-07T02:50:42;1.60;;;1.50;;
39654;SDS011;25336;59.944;11.010;2023-08-07T02:53:09;2.05;;;1.67;;
39654;SDS011;25336;59.944;11.010;2023-08-07T02:55:34;1.40;;;1.30;;
39654;SDS011;25336;59.944;11.010;2023-08-07T02:58:00;2.53;;;1.23;;
39654;SDS011;25336;59.944;11.010;2023-08-07T03:00:26;2.90;;;1.52;;
39654;SDS011;25336;59.944;11.010;2023-08-07T03:02:51;3.67;;;1.55;;
39654;SDS011;25336;59.944;11.010;2023-08-07T03:05:17;2.42;;;1.20;;
39654;SDS011;25336;59.944;11.010;2023-08-07T03:07:43;1.73;;;1.40;;
39654;SDS011;25336;59.944;11.010;2023-08-07T03:10:08;1.45;;;1.35;;
39654;SDS011;25336;59.944;11.010;2023-08-07T03:12:34;1.60;;;1.50;;
39654;SDS011;25336;59.944;11.010;2023-08-07T03:15:00;1.73;;;1.45;;
39654;SDS011;25336;59.944;11.010;2023-08-07T03:17:25;1.42;;;1.33;;
39654;SDS011;25336;59.944;11.010;2023-08-07T03:19:51;1.00;;;1.00;;
39654;SDS011;25336;59.944;11.010;2023-08-07T03:22:17;2.20;;;1.50;;
39654;SDS011;25336;59.944;11.010;2023-08-07T03:24:46;1.40;;;1.30;;
39654;SDS011;25336;59.944;11.010;2023-08-07T03:27:13;1.38;;;1.27;;
39654;SDS011;25336;59.944;11.010;2023-08-07T03:29:38;1.55;;;1.45;;
39654;SDS011;25336;59.944;11.010;2023-08-07T03:32:04;1.40;;;1.30;;
39654;SDS011;25336;59.944;11.010;2023-08-07T03:34:30;1.52;;;1.25;;
39654;SDS011;25336;59.944;11.010;2023-08-07T03:36:55;1.20;;;1.10;;
39654;SDS011;25336;59.944;11.010;2023-08-07T03:39:21;1.60;;;1.10;;
39654;SDS011;25336;59.944;11.010;2023-08-07T03:41:47;1.30;;;1.00;;
39654;SDS011;25336;59.944;11.010;2023-08-07T03:44:12;1.42;;;1.33;;
39654;SDS011;25336;59.944;11.010;2023-08-07T03:46:38;2.03;;;1.40;;
39654;SDS011;25336;59.944;11.010;2023-08-07T03:49:03;1.17;;;1.08;;
39654;SDS011;25336;59.944;11.010;2023-08-07T03:51:30;1.90;;;1.20;;
39654;SDS011;25336;59.944;11.010;2023-08-07T03:53:57;1.50;;;1.40;;
39654;SDS011;25336;59.944;11.010;2023-08-07T03:56:22;1.10;;;1.00;;
39654;SDS011;25336;59.944;11.010;2023-08-07T03:58:48;1.20;;;1.10;;
39654;SDS011;25336;59.944;11.010;2023-08-07T04:01:15;1.30;;;1.20;;
39654;SDS011;25336;59.944;11.010;2023-08-07T04:03:41;1.13;;;1.02;;
39654;SDS011;25336;59.944;11.010;2023-08-07T04:06:06;0.80;;;0.80;;
39654;SDS011;25336;59.944;11.010;2023-08-07T04:08:33;1.73;;;1.02;;
39654;SDS011;25336;59.944;11.010;2023-08-07T04:11:05;1.52;;;1.20;;
39654;SDS011;25336;59.944;11.010;2023-08-07T04:13:32;1.05;;;0.90;;
39654;SDS011;25336;59.944;11.010;2023-08-07T04:15:57;0.70;;;0.70;;
39654;SDS011;25336;59.944;11.010;2023-08-07T04:18:23;0.70;;;0.70;;
39654;SDS011;25336;59.944;11.010;2023-08-07T04:20:50;1.02;;;0.93;;
39654;SDS011;25336;59.944;11.010;2023-08-07T04:23:17;1.00;;;1.00;;
39654;SDS011;25336;59.944;11.010;2023-08-07T04:25:43;0.88;;;0.88;;
39654;SDS011;25336;59.944;11.010;2023-08-07T04:28:09;0.82;;;0.82;;
39654;SDS011;25336;59.944;11.010;2023-08-07T04:30:35;0.93;;;0.80;;
39654;SDS011;25336;59.944;11.010;2023-08-07T04:33:00;0.80;;;0.80;;
39654;SDS011;25336;59.944;11.010;2023-08-07T04:35:27;1.42;;;1.20;;
39654;SDS011;25336;59.944;11.010;2023-08-07T04:37:53;0.75;;;0.70;;
39654;SDS011;25336;59.944;11.010;2023-08-07T04:40:18;0.82;;;0.82;;
39654;SDS011;25336;59.944;11.010;2023-08-07T04:42:44;0.80;;;0.80;;
39654;SDS011;25336;59.944;11.010;2023-08-07T04:45:10;0.85;;;0.80;;
39654;SDS011;25336;59.944;11.010;2023-08-07T04:47:35;0.77;;;0.77;;
39654;SDS011;25336;59.944;11.010;2023-08-07T04:50:02;1.35;;;0.82;;
39654;SDS011;25336;59.944;11.010;2023-08-07T04:52:28;0.65;;;0.65;;
39654;SDS011;25336;59.944;11.010;2023-08-07T04:54:54;1.08;;;0.73;;
39654;SDS011;25336;59.944;11.010;2023-08-07T04:57:20;1.08;;;0.80;;
39654;SDS011;25336;59.944;11.010;2023-08-07T04:59:45;1.70;;;0.98;;
39654;SDS011;25336;59.944;11.010;2023-08-07T05:02:11;1.92;;;0.80;;
39654;SDS011;25336;59.944;11.010;2023-08-07T05:04:36;1.65;;;0.90;;
39654;SDS011;25336;59.944;11.010;2023-08-07T05:07:02;1.33;;;0.80;;
39654;SDS011;25336;59.944;11.010;2023-08-07T05:09:28;0.75;;;0.75;;
39654;SDS011;25336;59.944;11.010;2023-08-07T05:11:54;0.98;;;0.70;;
39654;SDS011;25336;59.944;11.010;2023-08-07T05:14:19;0.70;;;0.70;;
39654;SDS011;25336;59.944;11.010;2023-08-07T05:16:46;0.63;;;0.63;;
39654;SDS011;25336;59.944;11.010;2023-08-07T05:19:12;0.88;;;0.80;;
39654;SDS011;25336;59.944;11.010;2023-08-07T05:21:37;0.88;;;0.88;;
39654;SDS011;25336;59.944;11.010;2023-08-07T05:24:03;0.90;;;0.82;;
39654;SDS011;25336;59.944;11.010;2023-08-07T05:26:29;1.20;;;0.73;;
39654;SDS011;25336;59.944;11.010;2023-08-07T05:28:55;0.60;;;0.60;;
39654;SDS011;25336;59.944;11.010;2023-08-07T05:31:23;0.88;;;0.60;;
39654;SDS011;25336;59.944;11.010;2023-08-07T05:33:49;0.80;;;0.80;;
39654;SDS011;25336;59.944;11.010;2023-08-07T05:36:15;1.25;;;0.90;;
39654;SDS011;25336;59.944;11.010;2023-08-07T05:38:41;0.85;;;0.85;;
39654;SDS011;25336;59.944;11.010;2023-08-07T05:41:08;0.98;;;0.90;;
39654;SDS011;25336;59.944;11.010;2023-08-07T05:43:34;1.60;;;0.70;;
39654;SDS011;25336;59.944;11.010;2023-08-07T05:45:59;1.52;;;1.05;;
39654;SDS011;25336;59.944;11.010;2023-08-07T05:48:25;0.80;;;0.80;;
39654;SDS011;25336;59.944;11.010;2023-08-07T05:50:51;1.10;;;0.73;;
39654;SDS011;25336;59.944;11.010;2023-08-07T05:53:19;0.68;;;0.68;;
39654;SDS011;25336;59.944;11.010;2023-08-07T05:55:45;2.95;;;0.73;;
39654;SDS011;25336;59.944;11.010;2023-08-07T05:58:10;1.25;;;1.00;;
39654;SDS011;25336;59.944;11.010;2023-08-07T06:00:36;1.00;;;0.90;;
39654;SDS011;25336;59.944;11.010;2023-08-07T06:03:02;1.30;;;1.10;;
39654;SDS011;25336;59.944;11.010;2023-08-07T06:05:28;0.75;;;0.68;;
39654;SDS011;25336;59.944;11.010;2023-08-07T06:07:55;1.00;;;0.90;;
39654;SDS011;25336;59.944;11.010;2023-08-07T06:10:20;0.85;;;0.85;;
39654;SDS011;25336;59.944;11.010;2023-08-07T06:12:46;0.82;;;0.70;;
39654;SDS011;25336;59.944;11.010;2023-08-07T06:15:11;0.90;;;0.75;;
39654;SDS011;25336;59.944;11.010;2023-08-07T06:17:37;1.25;;;1.08;;
39654;SDS011;25336;59.944;11.010;2023-08-07T06:20:04;0.95;;;0.75;;
39654;SDS011;25336;59.944;11.010;2023-08-07T06:22:34;0.90;;;0.73;;
39654;SDS011;25336;59.944;11.010;2023-08-07T06:25:00;1.10;;;0.73;;
39654;SDS011;25336;59.944;11.010;2023-08-07T06:27:25;1.20;;;1.10;;
39654;SDS011;25336;59.944;11.010;2023-08-07T06:29:51;1.00;;;0.90;;
39654;SDS011;25336;59.944;11.010;2023-08-07T06:32:17;1.05;;;0.77;;
39654;SDS011;25336;59.944;11.010;2023-08-07T06:34:43;0.95;;;0.90;;
39654;SDS011;25336;59.944;11.010;2023-08-07T06:37:09;0.80;;;0.80;;
39654;SDS011;25336;59.944;11.010;2023-08-07T06:39:35;1.63;;;0.88;;
39654;SDS011;25336;59.944;11.010;2023-08-07T06:42:00;1.33;;;1.10;;
39654;SDS011;25336;59.944;11.010;2023-08-07T06:44:27;0.90;;;0.80;;
39654;SDS011;25336;59.944;11.010;2023-08-07T06:46:53;0.98;;;0.80;;
39654;SDS011;25336;59.944;11.010;2023-08-07T06:49:18;2.08;;;0.80;;
39654;SDS011;25336;59.944;11.010;2023-08-07T06:51:44;1.38;;;1.00;;
39654;SDS011;25336;59.944;11.010;2023-08-07T06:54:10;0.80;;;0.80;;
39654;SDS011;25336;59.944;11.010;2023-08-07T06:56:35;0.80;;;0.80;;
39654;SDS011;25336;59.944;11.010;2023-08-07T06:59:03;1.00;;;0.90;;
39654;SDS011;25336;59.944;11.010;2023-08-07T07:01:29;2.88;;;1.02;;
39654;SDS011;25336;59.944;11.010;2023-08-07T07:03:54;1.45;;;1.00;;
39654;SDS011;25336;59.944;11.010;2023-08-07T07:06:20;1.63;;;0.90;;
39654;SDS011;25336;59.944;11.010;2023-08-07T07:08:46;0.80;;;0.80;;
39654;SDS011;25336;59.944;11.010;2023-08-07T07:11:12;1.23;;;0.77;;
39654;SDS011;25336;59.944;11.010;2023-08-07T07:13:37;1.00;;;0.90;;
39654;SDS011;25336;59.944;11.010;2023-08-07T07:16:03;1.33;;;1.13;;
39654;SDS011;25336;59.944;11.010;2023-08-07T07:18:29;1.20;;;1.10;;
39654;SDS011;25336;59.944;11.010;2023-08-07T07:20:58;1.80;;;1.35;;
39654;SDS011;25336;59.944;11.010;2023-08-07T07:23:23;0.80;;;0.80;;
39654;SDS011;25336;59.944;11.010;2023-08-07T07:25:49;1.17;;;1.02;;
39654;SDS011;25336;59.944;11.010;2023-08-07T07:28:15;1.00;;;0.88;;
39654;SDS011;25336;59.944;11.010;2023-08-07T07:30:40;0.98;;;0.93;;
39654;SDS011;25336;59.944;11.010;2023-08-07T07:33:06;3.65;;;1.17;;
39654;SDS011;25336;59.944;11.010;2023-08-07T07:35:32;2.55;;;1.13;;
39654;SDS011;25336;59.944;11.010;2023-08-07T07:38:02;3.10;;;1.02;;
39654;SDS011;25336;59.944;11.010;2023-08-07T07:40:27;1.70;;;0.93;;
39654;SDS011;25336;59.944;11.010;2023-08-07T07:42:53;1.50;;;0.93;;
39654;SDS011;25336;59.944;11.010;2023-08-07T07:45:19;0.68;;;0.68;;
39654;SDS011;25336;59.944;11.010;2023-08-07T07:47:44;0.88;;;0.80;;
39654;SDS011;25336;59.944;11.010;2023-08-07T07:50:10;1.30;;;1.08;;
39654;SDS011;25336;59.944;11.010;2023-08-07T07:52:38;0.95;;;0.88;;
39654;SDS011;25336;59.944;11.010;2023-08-07T07:55:03;1.33;;;1.10;;
39654;SDS011;25336;59.944;11.010;2023-08-07T07:57:30;3.20;;;0.85;;
39654;SDS011;25336;59.944;11.010;2023-08-07T07:59:56;0.63;;;0.63;;
39654;SDS011;25336;59.944;11.010;2023-08-07T08:02:22;0.90;;;0.90;;
39654;SDS011;25336;59.944;11.010;2023-08-07T08:04:50;1.42;;;1.00;;
39654;SDS011;25336;59.944;11.010;2023-08-07T08:07:16;1.17;;;0.95;;
39654;SDS011;25336;59.944;11.010;2023-08-07T08:09:41;2.22;;;1.00;;
39654;SDS011;25336;59.944;11.010;2023-08-07T08:12:07;1.10;;;0.98;;
39654;SDS011;25336;59.944;11.010;2023-08-07T08:14:33;0.80;;;0.80;;
39654;SDS011;25336;59.944;11.010;2023-08-07T08:16:59;0.70;;;0.70;;
39654;SDS011;25336;59.944;11.010;2023-08-07T08:19:24;1.60;;;0.70;;
39654;SDS011;25336;59.944;11.010;2023-08-07T08:21:50;5.20;;;1.02;;
39654;SDS011;25336;59.944;11.010;2023-08-07T08:24:15;1.88;;;0.95;;
39654;SDS011;25336;59.944;11.010;2023-08-07T08:26:41;3.65;;;1.10;;
39654;SDS011;25336;59.944;11.010;2023-08-07T08:29:07;1.20;;;1.10;;
39654;SDS011;25336;59.944;11.010;2023-08-07T08:31:33;1.42;;;1.25;;
39654;SDS011;25336;59.944;11.010;2023-08-07T08:33:59;0.88;;;0.73;;
39654;SDS011;25336;59.944;11.010;2023-08-07T08:36:25;2.15;;;1.30;;
39654;SDS011;25336;59.944;11.010;2023-08-07T08:38:51;1.55;;;1.10;;
39654;SDS011;25336;59.944;11.010;2023-08-07T08:41:17;1.35;;;1.20;;
39654;SDS011;25336;59.944;11.010;2023-08-07T08:43:45;1.35;;;0.85;;
39654;SDS011;25336;59.944;11.010;2023-08-07T08:46:15;0.90;;;0.90;;
39654;SDS011;25336;59.944;11.010;2023-08-07T08:48:44;1.17;;;0.95;;
39654;SDS011;25336;59.944;11.010;2023-08-07T08:51:16;1.77;;;0.90;;
39654;SDS011;25336;59.944;11.010;2023-08-07T08:53:43;1.50;;;1.00;;
39654;SDS011;25336;59.944;11.010;2023-08-07T08:56:10;1.40;;;0.82;;
39654;SDS011;25336;59.944;11.010;2023-08-07T08:58:37;1.00;;;0.80;;
39654;SDS011;25336;59.944;11.010;2023-08-07T09:01:04;1.15;;;0.70;;
39654;SDS011;25336;59.944;11.010;2023-08-07T09:03:31;0.70;;;0.70;;
39654;SDS011;25336;59.944;11.010;2023-08-07T09:05:58;1.35;;;0.80;;
39654;SDS011;25336;59.944;11.010;2023-08-07T09:08:27;2.10;;;1.10;;
39654;SDS011;25336;59.944;11.010;2023-08-07T09:10:55;1.52;;;1.30;;
39654;SDS011;25336;59.944;11.010;2023-08-07T09:13:22;1.42;;;1.15;;
39654;SDS011;25336;59.944;11.010;2023-08-07T09:15:52;1.15;;;1.05;;
39654;SDS011;25336;59.944;11.010;2023-08-07T09:18:18;2.63;;;1.17;;
39654;SDS011;25336;59.944;11.010;2023-08-07T09:20:45;1.25;;;1.08;;
39654;SDS011;25336;59.944;11.010;2023-08-07T09:23:11;1.48;;;1.15;;
39654;SDS011;25336;59.944;11.010;2023-08-07T09:25:37;1.08;;;0.80;;
39654;SDS011;25336;59.944;11.010;2023-08-07T09:28:04;0.70;;;0.70;;
39654;SDS011;25336;59.944;11.010;2023-08-07T09:30:30;0.60;;;0.60;;
39654;SDS011;25336;59.944;11.010;2023-08-07T09:32:59;1.85;;;0.80;;
39654;SDS011;25336;59.944;11.010;2023-08-07T09:35:25;1.65;;;1.10;;
39654;SDS011;25336;59.944;11.010;2023-08-07T09:37:51;1.60;;;1.10;;
39654;SDS011;25336;59.944;11.010;2023-08-07T09:40:19;1.50;;;0.98;;
39654;SDS011;25336;59.944;11.010;2023-08-07T09:42:45;0.90;;;0.75;;
39654;SDS011;25336;59.944;11.010;2023-08-07T09:45:27;1.10;;;0.90;;
39654;SDS011;25336;59.944;11.010;2023-08-07T09:47:57;0.98;;;0.77;;
39654;SDS011;25336;59.944;11.010;2023-08-07T09:50:33;1.73;;;0.80;;
39654;SDS011;25336;59.944;11.010;2023-08-07T09:52:59;2.50;;;0.80;;
39654;SDS011;25336;59.944;11.010;2023-08-07T09:55:25;2.80;;;0.80;;
39654;SDS011;25336;59.944;11.010;2023-08-07T09:57:51;0.82;;;0.70;;
39654;SDS011;25336;59.944;11.010;2023-08-07T10:00:18;1.00;;;1.00;;
39654;SDS011;25336;59.944;11.010;2023-08-07T10:02:45;1.10;;;1.00;;
39654;SDS011;25336;59.944;11.010;2023-08-07T10:05:12;2.85;;;1.15;;
39654;SDS011;25336;59.944;11.010;2023-08-07T10:07:38;2.35;;;1.00;;
39654;SDS011;25336;59.944;11.010;2023-08-07T10:10:05;1.83;;;0.77;;
39654;SDS011;25336;59.944;11.010;2023-08-07T10:12:31;0.93;;;0.60;;
39654;SDS011;25336;59.944;11.010;2023-08-07T10:14:58;0.55;;;0.50;;
39654;SDS011;25336;59.944;11.010;2023-08-07T10:17:25;0.80;;;0.60;;
39654;SDS011;25336;59.944;11.010;2023-08-07T10:19:51;0.90;;;0.77;;
39654;SDS011;25336;59.944;11.010;2023-08-07T10:22:20;1.08;;;0.60;;
39654;SDS011;25336;59.944;11.010;2023-08-07T10:24:49;0.70;;;0.70;;
39654;SDS011;25336;59.944;11.010;2023-08-07T10:27:17;0.43;;;0.43;;
39654;SDS011;25336;59.944;11.010;2023-08-07T10:29:45;2.03;;;0.50;;
39654;SDS011;25336;59.944;11.010;2023-08-07T10:32:13;0.55;;;0.55;;
39654;SDS011;25336;59.944;11.010;2023-08-07T10:34:41;0.30;;;0.30;;
39654;SDS011;25336;59.944;11.010;2023-08-07T10:37:31;1.25;;;0.60;;
39654;SDS011;25336;59.944;11.010;2023-08-07T10:40:04;0.70;;;0.60;;
39654;SDS011;25336;59.944;11.010;2023-08-07T10:45:18;0.50;;;0.50;;
39654;SDS011;25336;59.944;11.010;2023-08-07T10:48:06;0.60;;;0.40;;
39654;SDS011;25336;59.944;11.010;2023-08-07T10:50:35;0.80;;;0.52;;
39654;SDS011;25336;59.944;11.010;2023-08-07T10:53:28;0.38;;;0.38;;
39654;SDS011;25336;59.944;11.010;2023-08-07T10:56:15;0.45;;;0.40;;
39654;SDS011;25336;59.944;11.010;2023-08-07T10:58:41;0.50;;;0.50;;
39654;SDS011;25336;59.944;11.010;2023-08-07T11:04:13;2.47;;;0.50;;
39654;SDS011;25336;59.944;11.010;2023-08-07T11:06:39;1.25;;;0.60;;
39654;SDS011;25336;59.944;11.010;2023-08-07T11:09:06;0.98;;;0.57;;
39654;SDS011;25336;59.944;11.010;2023-08-07T11:11:41;1.67;;;0.47;;
39654;SDS011;25336;59.944;11.010;2023-08-07T11:14:12;0.43;;;0.32;;
39654;SDS011;25336;59.944;11.010;2023-08-07T11:16:39;0.95;;;0.40;;
39654;SDS011;25336;59.944;11.010;2023-08-07T11:19:05;1.10;;;0.50;;
39654;SDS011;25336;59.944;11.010;2023-08-07T11:21:32;0.40;;;0.40;;
39654;SDS011;25336;59.944;11.010;2023-08-07T11:23:58;0.50;;;0.50;;
39654;SDS011;25336;59.944;11.010;2023-08-07T11:26:24;0.75;;;0.50;;
39654;SDS011;25336;59.944;11.010;2023-08-07T11:28:51;2.95;;;0.60;;
39654;SDS011;25336;59.944;11.010;2023-08-07T11:31:20;0.30;;;0.30;;
39654;SDS011;25336;59.944;11.010;2023-08-07T11:33:54;1.10;;;0.47;;
39654;SDS011;25336;59.944;11.010;2023-08-07T11:36:22;2.35;;;0.70;;
39654;SDS011;25336;59.944;11.010;2023-08-07T11:38:48;5.65;;;0.55;;
39654;SDS011;25336;59.944;11.010;2023-08-07T11:41:16;0.95;;;0.68;;
39654;SDS011;25336;59.944;11.010;2023-08-07T11:43:43;0.50;;;0.43;;
39654;SDS011;25336;59.944;11.010;2023-08-07T11:46:10;0.65;;;0.50;;
39654;SDS011;25336;59.944;11.010;2023-08-07T11:48:38;0.77;;;0.60;;
39654;SDS011;25336;59.944;11.010;2023-08-07T11:51:05;0.50;;;0.50;;
39654;SDS011;25336;59.944;11.010;2023-08-07T11:53:32;1.58;;;0.50;;
39654;SDS011;25336;59.944;11.010;2023-08-07T11:56:00;0.85;;;0.65;;
39654;SDS011;25336;59.944;11.010;2023-08-07T11:58:28;0.77;;;0.77;;
39654;SDS011;25336;59.944;11.010;2023-08-07T12:01:03;0.75;;;0.60;;
39654;SDS011;25336;59.944;11.010;2023-08-07T12:03:36;1.33;;;0.73;;
39654;SDS011;25336;59.944;11.010;2023-08-07T12:06:04;1.17;;;0.60;;
39654;SDS011;25336;59.944;11.010;2023-08-07T12:08:35;0.82;;;0.70;;
39654;SDS011;25336;59.944;11.010;2023-08-07T12:11:02;0.95;;;0.63;;
39654;SDS011;25336;59.944;11.010;2023-08-07T12:13:29;0.50;;;0.50;;
39654;SDS011;25336;59.944;11.010;2023-08-07T12:15:57;1.13;;;0.68;;
39654;SDS011;25336;59.944;11.010;2023-08-07T12:18:23;0.77;;;0.40;;
39654;SDS011;25336;59.944;11.010;2023-08-07T12:20:52;0.68;;;0.47;;
39654;SDS011;25336;59.944;11.010;2023-08-07T12:23:21;0.75;;;0.60;;
39654;SDS011;25336;59.944;11.010;2023-08-07T12:25:47;0.50;;;0.40;;
39654;SDS011;25336;59.944;11.010;2023-08-07T12:28:14;0.50;;;0.50;;
39654;SDS011;25336;59.944;11.010;2023-08-07T12:30:43;0.40;;;0.40;;
39654;SDS011;25336;59.944;11.010;2023-08-07T12:33:10;0.43;;;0.40;;
39654;SDS011;25336;59.944;11.010;2023-08-07T12:35:36;2.20;;;0.60;;
39654;SDS011;25336;59.944;11.010;2023-08-07T12:38:01;0.50;;;0.50;;
39654;SDS011;25336;59.944;11.010;2023-08-07T12:40:30;0.22;;;0.22;;
39654;SDS011;25336;59.944;11.010;2023-08-07T12:42:56;0.30;;;0.30;;
39654;SDS011;25336;59.944;11.010;2023-08-07T12:45:23;0.32;;;0.32;;
39654;SDS011;25336;59.944;11.010;2023-08-07T12:47:49;0.50;;;0.50;;
39654;SDS011;25336;59.944;11.010;2023-08-07T12:50:15;0.40;;;0.40;;
39654;SDS011;25336;59.944;11.010;2023-08-07T12:52:41;0.95;;;0.50;;
39654;SDS011;25336;59.944;11.010;2023-08-07T12:55:07;0.50;;;0.50;;
39654;SDS011;25336;59.944;11.010;2023-08-07T12:57:33;0.50;;;0.50;;
39654;SDS011;25336;59.944;11.010;2023-08-07T12:59:59;0.73;;;0.40;;
39654;SDS011;25336;59.944;11.010;2023-08-07T13:02:27;4.57;;;0.65;;
39654;SDS011;25336;59.944;11.010;2023-08-07T13:04:53;0.90;;;0.50;;
39654;SDS011;25336;59.944;11.010;2023-08-07T13:07:19;0.40;;;0.40;;
39654;SDS011;25336;59.944;11.010;2023-08-07T13:09:45;0.30;;;0.30;;
39654;SDS011;25336;59.944;11.010;2023-08-07T13:12:13;0.70;;;0.30;;
39654;SDS011;25336;59.944;11.010;2023-08-07T13:14:38;0.30;;;0.30;;
39654;SDS011;25336;59.944;11.010;2023-08-07T13:17:04;0.30;;;0.30;;
39654;SDS011;25336;59.944;11.010;2023-08-07T13:19:30;0.25;;;0.25;;
39654;SDS011;25336;59.944;11.010;2023-08-07T13:21:55;0.55;;;0.30;;
39654;SDS011;25336;59.944;11.010;2023-08-07T13:24:21;1.17;;;0.30;;
39654;SDS011;25336;59.944;11.010;2023-08-07T13:26:47;1.38;;;0.43;;
39654;SDS011;25336;59.944;11.010;2023-08-07T13:29:13;0.40;;;0.40;;
39654;SDS011;25336;59.944;11.010;2023-08-07T13:31:39;0.80;;;0.40;;
39654;SDS011;25336;59.944;11.010;2023-08-07T13:34:11;0.63;;;0.40;;
39654;SDS011;25336;59.944;11.010;2023-08-07T13:36:37;0.57;;;0.45;;
39654;SDS011;25336;59.944;11.010;2023-08-07T13:39:03;0.43;;;0.43;;
39654;SDS011;25336;59.944;11.010;2023-08-07T13:41:30;7.40;;;0.95;;
39654;SDS011;25336;59.944;11.010;2023-08-07T13:43:55;0.30;;;0.30;;
39654;SDS011;25336;59.944;11.010;2023-08-07T13:46:21;0.70;;;0.40;;
39654;SDS011;25336;59.944;11.010;2023-08-07T13:48:47;1.13;;;0.50;;
39654;SDS011;25336;59.944;11.010;2023-08-07T13:51:16;0.50;;;0.50;;
39654;SDS011;25336;59.944;11.010;2023-08-07T13:53:42;0.95;;;0.40;;
39654;SDS011;25336;59.944;11.010;2023-08-07T13:56:09;0.35;;;0.35;;
39654;SDS011;25336;59.944;11.010;2023-08-07T13:58:37;1.20;;;0.47;;
39654;SDS011;25336;59.944;11.010;2023-08-07T14:01:07;0.40;;;0.40;;
39654;SDS011;25336;59.944;11.010;2023-08-07T14:03:33;0.32;;;0.32;;
39654;SDS011;25336;59.944;11.010;2023-08-07T14:05:59;0.50;;;0.50;;
39654;SDS011;25336;59.944;11.010;2023-08-07T14:08:25;1.17;;;0.38;;
39654;SDS011;25336;59.944;11.010;2023-08-07T14:10:51;1.70;;;0.43;;
39654;SDS011;25336;59.944;11.010;2023-08-07T14:13:17;1.42;;;0.70;;
39654;SDS011;25336;59.944;11.010;2023-08-07T14:15:43;0.47;;;0.47;;
39654;SDS011;25336;59.944;11.010;2023-08-07T14:18:08;0.30;;;0.30;;
39654;SDS011;25336;59.944;11.010;2023-08-07T14:20:36;0.80;;;0.38;;
39654;SDS011;25336;59.944;11.010;2023-08-07T14:23:01;0.38;;;0.38;;
39654;SDS011;25336;59.944;11.010;2023-08-07T14:25:27;0.40;;;0.40;;
39654;SDS011;25336;59.944;11.010;2023-08-07T14:27:53;0.65;;;0.65;;
39654;SDS011;25336;59.944;11.010;2023-08-07T14:30:19;0.50;;;0.50;;
39654;SDS011;25336;59.944;11.010;2023-08-07T14:32:44;2.35;;;0.60;;
39654;SDS011;25336;59.944;11.010;2023-08-07T14:35:13;1.05;;;0.70;;
39654;SDS011;25336;59.944;11.010;2023-08-07T14:37:39;0.73;;;0.55;;
39654;SDS011;25336;59.944;11.010;2023-08-07T14:40:05;0.47;;;0.47;;
39654;SDS011;25336;59.944;11.010;2023-08-07T14:42:31;1.98;;;0.43;;